createdAt,value
2018-12-29T00:01:01.496Z,62.00
2018-12-29T00:03:29.009Z,59.60
2018-12-29T00:05:56.546Z,53.92
2018-12-29T00:08:24.087Z,70.15
2018-12-29T00:10:51.779Z,57.98
2018-12-29T00:13:19.584Z,60.55
2018-12-29T00:15:47.307Z,55.88
2018-12-29T00:18:14.979Z,58.48
2018-12-29T00:20:42.683Z,56.40
2018-12-29T00:23:10.210Z,61.15
2018-12-29T00:25:37.974Z,59.67
2018-12-29T00:28:05.510Z,56.37
2018-12-29T00:30:33.248Z,63.78
2018-12-29T00:33:01.043Z,62.53
2018-12-29T00:35:28.703Z,54.93
2018-12-29T00:37:56.321Z,57.08
2018-12-29T00:40:23.996Z,60.65
2018-12-29T00:42:51.597Z,53.17
2018-12-29T00:45:19.343Z,58.15
2018-12-29T00:47:47.032Z,55.15
2018-12-29T00:50:14.637Z,49.67
2018-12-29T00:52:42.227Z,54.65
2018-12-29T00:55:09.825Z,50.88
2018-12-29T00:57:37.520Z,54.23
2018-12-29T01:00:05.888Z,55.38
2018-12-29T01:02:33.468Z,57.05
2018-12-29T01:05:01.011Z,61.73
2018-12-29T01:07:28.669Z,56.83
2018-12-29T01:09:56.463Z,54.90
2018-12-29T01:12:23.996Z,53.85
2018-12-29T01:14:51.650Z,54.48
2018-12-29T01:17:19.171Z,56.23
2018-12-29T01:19:46.757Z,54.27
2018-12-29T01:22:14.453Z,57.05
2018-12-29T01:24:42.022Z,57.13
2018-12-29T01:27:09.696Z,51.95
2018-12-29T01:29:37.512Z,51.88
2018-12-29T01:32:05.297Z,49.27
2018-12-29T01:34:32.999Z,49.90
2018-12-29T01:37:00.713Z,54.67
2018-12-29T01:39:28.494Z,56.58
2018-12-29T01:41:56.162Z,53.90
2018-12-29T01:44:23.759Z,56.10
2018-12-29T01:46:51.383Z,52.10
2018-12-29T01:49:18.988Z,56.13
2018-12-29T01:51:46.733Z,56.10
2018-12-29T01:54:14.437Z,57.50
2018-12-29T01:56:42.061Z,51.53
2018-12-29T01:59:09.792Z,53.95
2018-12-29T02:01:37.519Z,56.88
2018-12-29T02:04:05.115Z,55.03
2018-12-29T02:06:32.726Z,54.05
2018-12-29T02:09:00.338Z,62.08
2018-12-29T02:11:27.908Z,52.98
2018-12-29T02:13:55.523Z,60.95
2018-12-29T02:16:23.101Z,60.35
2018-12-29T02:18:50.632Z,61.60
2018-12-29T02:21:18.442Z,52.17
2018-12-29T02:23:46.185Z,61.65
2018-12-29T02:26:13.726Z,57.15
2018-12-29T02:28:41.367Z,59.95
2018-12-29T02:31:09.091Z,53.23
2018-12-29T02:33:36.838Z,67.27
2018-12-29T02:36:04.407Z,60.08
2018-12-29T02:38:31.961Z,49.58
2018-12-29T02:40:59.511Z,60.50
2018-12-29T02:43:27.187Z,61.55
2018-12-29T02:45:54.786Z,55.15
2018-12-29T02:48:22.474Z,60.00
2018-12-29T02:50:50.175Z,52.60
2018-12-29T02:53:17.766Z,58.78
2018-12-29T02:55:45.444Z,54.20
2018-12-29T02:58:13.107Z,55.85
2018-12-29T03:00:40.622Z,61.35
2018-12-29T03:03:08.318Z,53.25
2018-12-29T03:05:35.955Z,52.33
2018-12-29T03:08:03.552Z,56.88
2018-12-29T03:10:31.130Z,56.33
2018-12-29T03:12:58.692Z,55.75
2018-12-29T03:15:26.265Z,58.10
2018-12-29T03:17:53.789Z,51.60
2018-12-29T03:20:21.365Z,52.80
2018-12-29T03:22:48.978Z,58.65
2018-12-29T03:25:16.518Z,52.93
2018-12-29T03:27:48.704Z,51.30
2018-12-29T03:30:16.428Z,57.88
2018-12-29T03:32:44.070Z,55.10
2018-12-29T03:35:11.612Z,54.83
2018-12-29T03:37:39.152Z,54.10
2018-12-29T03:40:07.074Z,54.13
2018-12-29T03:42:34.617Z,54.10
2018-12-29T03:45:02.202Z,52.95
2018-12-29T03:47:29.866Z,51.28
2018-12-29T03:49:57.505Z,55.92
2018-12-29T03:52:25.183Z,56.20
2018-12-29T03:54:53.818Z,53.25
2018-12-29T03:57:21.334Z,50.17
2018-12-29T03:59:49.007Z,49.80
2018-12-29T04:02:16.758Z,54.98
2018-12-29T04:04:44.414Z,46.75
2018-12-29T04:07:12.005Z,46.95
2018-12-29T04:09:39.615Z,50.33
2018-12-29T04:12:12.025Z,47.27
2018-12-29T04:14:39.606Z,53.87
2018-12-29T04:17:07.116Z,46.45
2018-12-29T04:19:35.198Z,52.43
2018-12-29T04:22:02.837Z,50.10
2018-12-29T04:24:30.424Z,54.95
2018-12-29T04:26:58.102Z,43.10
2018-12-29T04:29:26.441Z,49.45
2018-12-29T04:31:54.169Z,48.25
2018-12-29T04:34:21.951Z,46.65
2018-12-29T04:36:50.228Z,45.03
2018-12-29T04:39:17.829Z,55.88
2018-12-29T04:41:45.441Z,45.45
2018-12-29T04:44:12.946Z,49.05
2018-12-29T04:46:40.588Z,44.48
2018-12-29T04:49:08.265Z,47.15
2018-12-29T04:51:35.891Z,52.78
2018-12-29T04:54:03.641Z,47.45
2018-12-29T04:56:31.245Z,46.10
2018-12-29T04:58:58.853Z,48.25
2018-12-29T05:01:26.523Z,48.73
2018-12-29T05:03:54.139Z,46.23
2018-12-29T05:06:21.743Z,46.83
2018-12-29T05:08:49.382Z,45.28
2018-12-29T05:11:16.882Z,48.52
2018-12-29T05:13:44.470Z,45.73
2018-12-29T05:16:12.975Z,43.02
2018-12-29T05:18:40.712Z,49.18
2018-12-29T05:21:08.266Z,51.95
2018-12-29T05:23:35.915Z,45.45
2018-12-29T05:26:03.586Z,45.05
2018-12-29T05:28:31.139Z,47.10
2018-12-29T05:30:58.868Z,46.33
2018-12-29T05:33:26.419Z,51.08
2018-12-29T05:35:54.101Z,43.45
2018-12-29T05:38:21.717Z,48.10
2018-12-29T05:40:49.291Z,41.37
2018-12-29T05:43:16.869Z,45.12
2018-12-29T05:45:44.508Z,39.58
2018-12-29T05:48:12.276Z,40.80
2018-12-29T05:50:39.955Z,42.83
2018-12-29T05:53:07.582Z,41.77
2018-12-29T05:55:35.229Z,41.00
2018-12-29T05:58:02.831Z,42.73
2018-12-29T06:00:30.449Z,39.20
2018-12-29T06:02:58.270Z,47.58
2018-12-29T06:05:25.868Z,40.35
2018-12-29T06:07:53.500Z,40.73
2018-12-29T06:10:21.254Z,38.75
2018-12-29T06:12:48.742Z,40.33
2018-12-29T06:15:16.266Z,41.63
2018-12-29T06:17:43.826Z,45.48
2018-12-29T06:20:11.388Z,42.25
2018-12-29T06:22:38.923Z,41.92
2018-12-29T06:25:06.482Z,46.63
2018-12-29T06:27:34.002Z,38.90
2018-12-29T06:30:01.529Z,36.30
2018-12-29T06:32:29.095Z,42.55
2018-12-29T06:34:56.604Z,42.50
2018-12-29T06:37:24.213Z,40.40
2018-12-29T06:39:51.730Z,39.58
2018-12-29T06:42:19.244Z,46.20
2018-12-29T06:44:46.806Z,38.75
2018-12-29T06:47:14.355Z,42.67
2018-12-29T06:49:41.867Z,42.60
2018-12-29T06:52:09.434Z,48.63
2018-12-29T06:54:36.958Z,43.78
2018-12-29T06:57:04.535Z,41.15
2018-12-29T06:59:32.097Z,46.77
2018-12-29T07:01:59.623Z,41.98
2018-12-29T07:04:27.142Z,40.80
2018-12-29T07:06:54.683Z,48.95
2018-12-29T07:09:22.336Z,42.08
2018-12-29T07:11:49.903Z,43.38
2018-12-29T07:14:17.425Z,43.35
2018-12-29T07:16:44.975Z,43.73
2018-12-29T07:19:12.487Z,43.20
2018-12-29T07:21:40.042Z,43.00
2018-12-29T07:24:07.565Z,49.38
2018-12-29T07:26:35.081Z,45.17
2018-12-29T07:29:04.111Z,39.73
2018-12-29T07:31:31.736Z,40.88
2018-12-29T07:33:59.278Z,45.70
2018-12-29T07:36:26.809Z,44.88
2018-12-29T07:38:56.583Z,37.90
2018-12-29T07:41:24.096Z,42.13
2018-12-29T07:43:51.631Z,46.23
2018-12-29T07:46:19.187Z,42.17
2018-12-29T07:48:46.718Z,41.33
2018-12-29T07:51:14.315Z,42.95
2018-12-29T07:53:41.835Z,39.40
2018-12-29T07:56:09.358Z,42.58
2018-12-29T07:58:36.905Z,42.50
2018-12-29T08:01:04.419Z,42.40
2018-12-29T08:03:31.939Z,40.50
2018-12-29T08:05:59.492Z,41.02
2018-12-29T08:08:27.002Z,37.95
2018-12-29T08:10:54.523Z,40.98
2018-12-29T08:13:22.066Z,46.40
2018-12-29T08:15:49.617Z,37.85
2018-12-29T08:18:17.134Z,36.75
2018-12-29T08:20:44.654Z,41.48
2018-12-29T08:23:12.202Z,37.48
2018-12-29T08:25:39.726Z,40.75
2018-12-29T08:28:07.261Z,49.40
2018-12-29T08:30:34.789Z,37.35
2018-12-29T08:33:02.343Z,36.15
2018-12-29T08:35:29.851Z,36.20
2018-12-29T08:37:57.367Z,38.42
2018-12-29T08:40:24.911Z,34.08
2018-12-29T08:42:52.415Z,31.87
2018-12-29T08:45:20.097Z,34.63
2018-12-29T08:47:47.615Z,38.25
2018-12-29T08:50:15.163Z,36.98
2018-12-29T08:52:42.689Z,35.43
2018-12-29T08:55:10.220Z,36.55
2018-12-29T08:57:37.771Z,37.33
2018-12-29T09:00:06.158Z,33.53
2018-12-29T12:00:43.665Z,27.00
2018-12-29T12:03:11.165Z,26.35
2018-12-29T12:05:38.749Z,26.15
2018-12-29T12:08:06.549Z,24.82
2018-12-29T12:10:34.063Z,25.70
2018-12-29T12:13:01.733Z,27.90
2018-12-29T12:15:29.245Z,28.25
2018-12-29T12:17:57.509Z,28.90
2018-12-29T12:20:28.816Z,35.03
2018-12-29T12:22:56.336Z,37.03
2018-12-29T12:28:19.996Z,35.13
2018-12-29T12:30:47.714Z,35.30
2018-12-29T12:33:16.033Z,32.75
2018-12-29T12:35:43.813Z,36.73
2018-12-29T12:38:11.949Z,33.10
2018-12-29T12:40:39.815Z,34.88
2018-12-29T12:43:07.976Z,40.00
2018-12-29T12:45:35.965Z,36.50
2018-12-29T12:48:05.232Z,44.80
2018-12-29T12:50:33.140Z,37.48
2018-12-29T12:53:01.536Z,44.15
2018-12-29T12:55:30.992Z,44.70
2018-12-29T12:57:59.572Z,40.83
2018-12-29T13:00:27.809Z,44.90
2018-12-29T13:02:56.170Z,36.93
2018-12-29T13:05:25.020Z,42.03
2018-12-29T13:07:52.695Z,42.33
2018-12-29T13:10:22.066Z,44.23
2018-12-29T13:12:49.619Z,41.08
2018-12-29T13:15:17.168Z,39.55
2018-12-29T13:17:44.687Z,44.48
2018-12-29T13:20:12.207Z,43.08
2018-12-29T13:22:40.764Z,46.35
2018-12-29T13:25:08.889Z,50.60
2018-12-29T13:27:38.172Z,40.80
2018-12-29T13:30:06.603Z,44.75
2018-12-29T13:32:34.856Z,48.50
2018-12-29T13:35:03.209Z,50.33
2018-12-29T13:37:30.850Z,48.42
2018-12-29T13:39:58.576Z,46.85
2018-12-29T13:42:26.201Z,46.35
2018-12-29T13:44:53.739Z,47.33
2018-12-29T13:47:21.246Z,47.60
2018-12-29T13:49:48.768Z,48.58
2018-12-29T13:52:16.347Z,52.23
2018-12-29T13:54:43.871Z,46.15
2018-12-29T13:57:11.392Z,45.05
2018-12-29T13:59:38.989Z,40.45
2018-12-29T14:02:06.510Z,44.35
2018-12-29T14:04:34.027Z,45.70
2018-12-29T14:07:01.624Z,47.40
2018-12-29T14:09:29.149Z,46.33
2018-12-29T14:11:56.688Z,42.73
2018-12-29T14:14:24.529Z,48.98
2018-12-29T14:16:52.058Z,40.65
2018-12-29T14:19:19.727Z,43.42
2018-12-29T14:21:47.252Z,41.65
2018-12-29T14:24:14.766Z,46.58
2018-12-29T14:26:42.338Z,39.08
2018-12-29T14:29:09.863Z,42.95
2018-12-29T14:31:37.390Z,38.42
2018-12-29T14:34:04.928Z,40.08
2018-12-29T14:36:32.447Z,39.63
2018-12-29T14:38:59.999Z,36.03
2018-12-29T14:41:27.536Z,39.42
2018-12-29T14:43:55.041Z,31.12
2018-12-29T14:46:22.620Z,36.85
2018-12-29T14:48:50.134Z,34.13
2018-12-29T14:51:17.665Z,31.25
2018-12-29T14:53:45.510Z,27.40
2018-12-29T14:56:13.063Z,28.87
2018-12-29T14:58:40.590Z,28.40
2018-12-29T15:01:08.186Z,29.18
2018-12-29T15:03:35.710Z,26.80
2018-12-29T15:06:03.232Z,23.77
2018-12-29T15:08:31.094Z,24.32
2018-12-29T15:10:58.611Z,21.77
2018-12-29T15:13:26.526Z,24.75
2018-12-29T15:15:54.070Z,21.93
2018-12-29T15:18:21.979Z,20.82
2018-12-29T15:20:49.856Z,23.30
2018-12-29T15:23:17.385Z,22.85
2018-12-29T15:25:44.899Z,24.20
2018-12-29T15:28:12.458Z,25.35
2018-12-29T15:30:41.558Z,26.48
2018-12-29T15:33:09.153Z,27.93
2018-12-29T15:35:36.672Z,24.77
2018-12-29T15:38:04.423Z,29.67
2018-12-29T15:40:31.991Z,32.03
2018-12-29T15:42:59.520Z,32.90
2018-12-29T15:45:27.340Z,32.98
2018-12-29T15:47:54.907Z,34.18
2018-12-29T15:50:22.420Z,38.08
2018-12-29T15:52:50.246Z,39.18
2018-12-29T15:55:17.779Z,39.08
2018-12-29T15:57:45.292Z,34.60
2018-12-29T16:00:12.851Z,37.38
2018-12-29T16:02:40.378Z,36.23
2018-12-29T16:05:07.894Z,41.13
2018-12-29T16:07:35.755Z,34.10
2018-12-29T16:10:03.856Z,32.55
2018-12-29T16:12:31.380Z,32.85
2018-12-29T16:14:58.946Z,35.43
2018-12-29T16:17:26.473Z,35.08
2018-12-29T16:20:00.436Z,30.55
2018-12-29T16:22:27.948Z,34.38
2018-12-29T16:24:55.500Z,32.42
2018-12-29T16:27:24.141Z,29.72
2018-12-29T16:29:53.589Z,28.20
2018-12-29T16:32:23.063Z,27.10
2018-12-29T16:34:51.913Z,30.68
2018-12-29T16:37:20.023Z,23.77
2018-12-29T16:39:48.061Z,29.00
2018-12-29T16:42:15.864Z,24.45
2018-12-29T16:44:43.858Z,22.40
2018-12-29T16:47:12.031Z,20.17
2018-12-29T16:49:40.914Z,22.73
2018-12-29T16:52:11.846Z,21.33
2018-12-29T16:54:39.973Z,24.07
2018-12-29T16:57:08.550Z,27.05
2018-12-29T16:59:37.643Z,27.85
2018-12-29T17:02:06.511Z,25.72
2018-12-29T17:04:34.968Z,24.07
2018-12-29T17:07:02.707Z,25.57
2018-12-29T17:09:31.221Z,26.25
2018-12-29T17:11:59.948Z,23.22
2018-12-29T17:14:28.574Z,20.62
2018-12-29T17:16:57.322Z,21.10
2018-12-29T17:19:25.156Z,21.57
2018-12-29T17:21:53.917Z,19.37
2018-12-29T17:24:22.347Z,17.73
2018-12-29T17:26:51.129Z,16.55
2018-12-29T17:29:21.804Z,14.23
2018-12-29T17:31:50.891Z,15.83
2018-12-29T17:34:20.008Z,16.20
2018-12-29T17:36:48.639Z,14.35
2018-12-29T17:39:16.147Z,12.53
2018-12-29T17:41:43.681Z,17.02
2018-12-29T17:44:11.194Z,14.55
2018-12-29T17:46:38.735Z,16.67
2018-12-29T17:49:06.467Z,13.62
2018-12-29T17:51:33.992Z,14.25
2018-12-29T17:54:02.746Z,16.62
2018-12-29T17:56:31.885Z,15.90
2018-12-29T17:58:59.972Z,15.50
2018-12-29T18:01:27.945Z,16.35
2018-12-29T18:03:56.354Z,15.68
2018-12-29T18:06:24.493Z,14.18
2018-12-29T18:08:53.250Z,14.55
2018-12-29T18:11:22.585Z,15.15
2018-12-29T18:13:50.845Z,15.00
2018-12-29T18:16:19.873Z,14.45
2018-12-29T18:18:49.037Z,15.18
2018-12-29T18:21:16.742Z,14.43
2018-12-29T18:23:45.935Z,15.98
2018-12-29T18:26:14.853Z,16.17
2018-12-29T18:28:43.477Z,18.40
2018-12-29T18:31:11.167Z,17.55
2018-12-29T18:33:40.001Z,16.48
2018-12-29T18:36:07.711Z,20.05
2018-12-29T18:38:35.513Z,17.23
2018-12-29T18:41:03.036Z,18.95
2018-12-29T18:43:30.555Z,21.90
2018-12-29T18:45:58.076Z,19.57
2018-12-29T18:48:25.586Z,20.27
2018-12-29T18:50:55.512Z,24.05
2018-12-29T18:53:23.354Z,21.60
2018-12-29T18:55:54.660Z,21.02
2018-12-29T18:58:22.114Z,22.00
2018-12-29T19:00:49.642Z,23.10
2018-12-29T19:03:17.340Z,24.47
2018-12-29T19:05:44.886Z,24.92
2018-12-29T19:08:12.400Z,23.22
2018-12-29T19:10:39.882Z,26.95
2018-12-29T19:13:07.620Z,30.05
2018-12-29T19:15:35.406Z,25.85
2018-12-29T19:18:02.937Z,24.40
2018-12-29T19:20:30.864Z,22.42
2018-12-29T19:22:58.419Z,24.55
2018-12-29T19:25:25.923Z,25.40
2018-12-29T19:27:53.426Z,26.20
2018-12-29T19:30:21.350Z,28.17
2018-12-29T19:32:49.153Z,27.75
2018-12-29T19:35:16.712Z,25.97
2018-12-29T19:37:44.209Z,21.80
2018-12-29T19:40:11.711Z,27.22
2018-12-29T19:42:39.435Z,28.77
2018-12-29T19:45:06.943Z,28.17
2018-12-29T19:47:34.536Z,28.35
2018-12-29T19:50:02.222Z,27.90
2018-12-29T19:52:29.748Z,28.32
2018-12-29T19:54:57.283Z,29.80
2018-12-29T19:57:25.203Z,28.45
2018-12-29T19:59:52.748Z,28.30
2018-12-29T20:02:20.553Z,25.60
2018-12-29T20:04:48.258Z,26.05
2018-12-29T20:07:16.011Z,25.50
2018-12-29T20:09:43.721Z,24.80
2018-12-29T20:12:11.211Z,27.00
2018-12-29T20:14:38.741Z,26.35
2018-12-29T20:17:06.239Z,23.35
2018-12-29T20:19:33.768Z,24.85
2018-12-29T20:22:01.251Z,27.80
2018-12-29T20:24:28.799Z,27.73
2018-12-29T20:26:56.305Z,28.55
2018-12-29T20:29:23.803Z,30.88
2018-12-29T20:31:51.318Z,28.77
2018-12-29T20:34:18.819Z,25.45
2018-12-29T20:36:46.662Z,29.18
2018-12-29T20:39:14.154Z,25.65
2018-12-29T20:41:41.685Z,23.18
2018-12-29T20:44:09.191Z,25.65
2018-12-29T20:46:36.705Z,19.17
2018-12-29T20:49:04.236Z,19.00
2018-12-29T20:51:32.143Z,15.55
2018-12-29T20:53:59.635Z,12.93
2018-12-29T20:56:27.155Z,12.15
2018-12-29T20:58:54.647Z,11.25
2018-12-29T21:01:22.188Z,10.50
2018-12-29T21:03:49.683Z,16.02
2018-12-29T21:06:17.483Z,9.30
2018-12-29T21:08:45.020Z,10.05
2018-12-29T21:11:12.522Z,6.47
2018-12-29T21:13:40.003Z,7.58
2018-12-29T21:16:07.517Z,8.83
2018-12-29T21:18:35.022Z,8.40
2018-12-29T21:21:02.811Z,9.03
2018-12-29T21:23:30.341Z,9.28
2018-12-29T21:25:57.835Z,5.45
2018-12-29T21:28:25.355Z,5.20
2018-12-29T21:30:52.846Z,8.13
2018-12-29T21:33:20.418Z,10.75
2018-12-29T21:35:47.897Z,9.88
2018-12-29T21:38:15.386Z,11.15
2018-12-29T21:40:42.910Z,8.30
2018-12-29T21:43:10.402Z,7.72
2018-12-29T21:45:37.927Z,9.40
2018-12-29T21:48:09.072Z,8.00
2018-12-29T21:50:37.778Z,9.10
2018-12-29T21:53:05.314Z,4.95
2018-12-29T21:55:32.793Z,6.65
2018-12-29T21:58:00.420Z,8.23
2018-12-29T22:00:27.917Z,7.28
2018-12-29T22:02:55.402Z,7.75
2018-12-29T22:05:23.448Z,8.85
2018-12-29T22:07:51.503Z,6.15
2018-12-29T22:10:19.000Z,5.55
2018-12-29T22:12:47.474Z,8.80
2018-12-29T22:15:15.968Z,8.00
2018-12-29T22:17:43.582Z,7.03
2018-12-29T22:20:11.376Z,8.40
2018-12-29T22:22:41.061Z,5.25
2018-12-29T22:25:08.763Z,6.10
2018-12-29T22:27:36.386Z,7.87
2018-12-29T22:30:05.429Z,11.73
2018-12-29T22:32:33.038Z,8.25
2018-12-29T22:35:00.671Z,8.50
2018-12-29T22:37:28.472Z,9.13
2018-12-29T22:39:56.588Z,6.83
2018-12-29T22:42:24.942Z,4.12
2018-12-29T22:44:52.740Z,6.58
2018-12-29T22:47:21.211Z,6.30
2018-12-29T22:49:49.112Z,6.55
2018-12-29T22:52:16.622Z,7.40
2018-12-29T22:54:44.143Z,8.10
2018-12-29T22:57:11.643Z,5.60
2018-12-29T22:59:39.256Z,8.18
2018-12-29T23:02:08.299Z,6.40
2018-12-29T23:04:36.307Z,7.55
2018-12-29T23:07:04.199Z,6.30
2018-12-29T23:09:33.072Z,5.50
2018-12-29T23:12:01.634Z,7.20
2018-12-29T23:14:29.895Z,4.30
2018-12-29T23:16:58.521Z,6.50
2018-12-29T23:19:27.902Z,5.65
2018-12-29T23:21:55.539Z,7.47
2018-12-29T23:24:23.059Z,11.18
2018-12-29T23:26:50.551Z,10.80
2018-12-29T23:29:18.161Z,5.58
2018-12-29T23:31:45.646Z,4.35
2018-12-29T23:34:13.178Z,3.87
2018-12-29T23:36:40.723Z,3.25
2018-12-29T23:39:08.214Z,8.75
2018-12-29T23:41:35.801Z,6.45
2018-12-29T23:44:03.317Z,4.70
2018-12-29T23:46:30.807Z,4.50
2018-12-29T23:48:58.342Z,5.62
2018-12-29T23:51:25.840Z,5.00
2018-12-29T23:53:53.332Z,9.95
2018-12-29T23:56:21.230Z,5.95
2018-12-29T23:58:48.723Z,8.58
